sensor_id;sensor_type;location;lat;lon;timestamp;P1;durP1;ratioP1;P2;durP2;ratioP2
57281;SDS011;43129;52.628;10.098;2023-08-30T00:00:56;4.32;;;3.30;;
57281;SDS011;43129;52.628;10.098;2023-08-30T00:03:23;4.43;;;3.15;;
57281;SDS011;43129;52.628;10.098;2023-08-30T00:05:49;6.55;;;3.60;;
57281;SDS011;43129;52.628;10.098;2023-08-30T00:08:15;3.97;;;3.38;;
57281;SDS011;43129;52.628;10.098;2023-08-30T00:10:45;5.88;;;3.33;;
57281;SDS011;43129;52.628;10.098;2023-08-30T00:13:11;6.25;;;3.75;;
57281;SDS011;43129;52.628;10.098;2023-08-30T00:15:37;4.75;;;4.00;;
57281;SDS011;43129;52.628;10.098;2023-08-30T00:18:03;6.28;;;3.70;;
57281;SDS011;43129;52.628;10.098;2023-08-30T00:20:29;4.30;;;3.33;;
57281;SDS011;43129;52.628;10.098;2023-08-30T00:22:55;5.82;;;3.38;;
57281;SDS011;43129;52.628;10.098;2023-08-30T00:25:20;7.28;;;4.00;;
57281;SDS011;43129;52.628;10.098;2023-08-30T00:27:49;8.55;;;4.15;;
57281;SDS011;43129;52.628;10.098;2023-08-30T00:30:14;4.28;;;3.88;;
57281;SDS011;43129;52.628;10.098;2023-08-30T00:32:42;3.85;;;3.45;;
57281;SDS011;43129;52.628;10.098;2023-08-30T00:35:12;4.43;;;3.60;;
57281;SDS011;43129;52.628;10.098;2023-08-30T00:37:40;4.63;;;4.13;;
57281;SDS011;43129;52.628;10.098;2023-08-30T00:40:08;4.35;;;3.90;;
57281;SDS011;43129;52.628;10.098;2023-08-30T00:42:37;5.22;;;4.20;;
57281;SDS011;43129;52.628;10.098;2023-08-30T00:45:03;4.43;;;4.00;;
57281;SDS011;43129;52.628;10.098;2023-08-30T00:47:29;5.55;;;4.05;;
57281;SDS011;43129;52.628;10.098;2023-08-30T00:49:55;5.22;;;3.80;;
57281;SDS011;43129;52.628;10.098;2023-08-30T00:52:20;6.00;;;4.20;;
57281;SDS011;43129;52.628;10.098;2023-08-30T00:54:46;5.03;;;4.07;;
57281;SDS011;43129;52.628;10.098;2023-08-30T00:57:14;4.68;;;4.03;;
57281;SDS011;43129;52.628;10.098;2023-08-30T00:59:43;6.07;;;4.00;;
57281;SDS011;43129;52.628;10.098;2023-08-30T01:02:09;8.00;;;4.50;;
57281;SDS011;43129;52.628;10.098;2023-08-30T01:04:37;5.25;;;4.40;;
57281;SDS011;43129;52.628;10.098;2023-08-30T01:07:05;5.55;;;4.13;;
57281;SDS011;43129;52.628;10.098;2023-08-30T01:09:30;4.82;;;4.30;;
57281;SDS011;43129;52.628;10.098;2023-08-30T01:14:38;6.03;;;4.60;;
57281;SDS011;43129;52.628;10.098;2023-08-30T01:17:16;5.18;;;4.10;;
57281;SDS011;43129;52.628;10.098;2023-08-30T01:19:55;4.30;;;3.85;;
57281;SDS011;43129;52.628;10.098;2023-08-30T01:27:33;4.38;;;3.88;;
57281;SDS011;43129;52.628;10.098;2023-08-30T01:30:00;5.80;;;3.53;;
57281;SDS011;43129;52.628;10.098;2023-08-30T01:32:27;4.68;;;3.97;;
57281;SDS011;43129;52.628;10.098;2023-08-30T01:34:55;4.70;;;4.05;;
57281;SDS011;43129;52.628;10.098;2023-08-30T01:37:23;7.35;;;4.55;;
57281;SDS011;43129;52.628;10.098;2023-08-30T01:39:50;5.85;;;4.38;;
57281;SDS011;43129;52.628;10.098;2023-08-30T01:42:17;6.25;;;5.05;;
57281;SDS011;43129;52.628;10.098;2023-08-30T01:44:47;5.20;;;4.70;;
57281;SDS011;43129;52.628;10.098;2023-08-30T01:47:17;5.18;;;4.43;;
57281;SDS011;43129;52.628;10.098;2023-08-30T01:49:44;6.38;;;4.53;;
57281;SDS011;43129;52.628;10.098;2023-08-30T01:52:10;6.05;;;4.03;;
57281;SDS011;43129;52.628;10.098;2023-08-30T01:54:36;5.03;;;4.22;;
57281;SDS011;43129;52.628;10.098;2023-08-30T01:57:08;5.07;;;4.32;;
57281;SDS011;43129;52.628;10.098;2023-08-30T01:59:34;4.90;;;4.40;;
57281;SDS011;43129;52.628;10.098;2023-08-30T02:01:59;8.45;;;4.10;;
57281;SDS011;43129;52.628;10.098;2023-08-30T02:04:25;5.57;;;4.32;;
57281;SDS011;43129;52.628;10.098;2023-08-30T02:07:03;4.65;;;4.07;;
57281;SDS011;43129;52.628;10.098;2023-08-30T02:09:38;6.25;;;4.40;;
57281;SDS011;43129;52.628;10.098;2023-08-30T02:12:09;5.63;;;4.03;;
57281;SDS011;43129;52.628;10.098;2023-08-30T02:14:39;5.43;;;4.18;;
57281;SDS011;43129;52.628;10.098;2023-08-30T02:17:09;4.97;;;4.15;;
57281;SDS011;43129;52.628;10.098;2023-08-30T02:19:37;5.13;;;3.65;;
57281;SDS011;43129;52.628;10.098;2023-08-30T02:22:05;5.38;;;3.60;;
57281;SDS011;43129;52.628;10.098;2023-08-30T02:24:30;5.07;;;3.50;;
57281;SDS011;43129;52.628;10.098;2023-08-30T02:26:58;4.10;;;3.20;;
57281;SDS011;43129;52.628;10.098;2023-08-30T02:29:26;3.97;;;2.97;;
57281;SDS011;43129;52.628;10.098;2023-08-30T02:31:52;4.15;;;3.70;;
57281;SDS011;43129;52.628;10.098;2023-08-30T02:34:20;7.90;;;3.30;;
57281;SDS011;43129;52.628;10.098;2023-08-30T02:36:45;4.47;;;3.40;;
57281;SDS011;43129;52.628;10.098;2023-08-30T02:39:13;4.03;;;3.65;;
57281;SDS011;43129;52.628;10.098;2023-08-30T02:41:41;7.10;;;3.25;;
57281;SDS011;43129;52.628;10.098;2023-08-30T02:44:13;5.07;;;3.40;;
57281;SDS011;43129;52.628;10.098;2023-08-30T02:46:39;4.40;;;3.10;;
57281;SDS011;43129;52.628;10.098;2023-08-30T02:49:05;4.47;;;3.05;;
57281;SDS011;43129;52.628;10.098;2023-08-30T02:51:31;5.43;;;3.47;;
57281;SDS011;43129;52.628;10.098;2023-08-30T02:53:59;4.28;;;3.25;;
57281;SDS011;43129;52.628;10.098;2023-08-30T02:56:24;4.15;;;3.65;;
57281;SDS011;43129;52.628;10.098;2023-08-30T02:58:50;4.93;;;2.97;;
57281;SDS011;43129;52.628;10.098;2023-08-30T03:01:16;4.25;;;3.30;;
57281;SDS011;43129;52.628;10.098;2023-08-30T03:03:41;6.35;;;3.70;;
57281;SDS011;43129;52.628;10.098;2023-08-30T03:06:07;4.63;;;3.35;;
57281;SDS011;43129;52.628;10.098;2023-08-30T03:08:35;7.55;;;4.13;;
57281;SDS011;43129;52.628;10.098;2023-08-30T03:11:10;6.22;;;4.03;;
57281;SDS011;43129;52.628;10.098;2023-08-30T03:13:37;4.53;;;3.92;;
57281;SDS011;43129;52.628;10.098;2023-08-30T03:16:15;4.68;;;3.97;;
57281;SDS011;43129;52.628;10.098;2023-08-30T03:18:41;6.32;;;4.30;;
57281;SDS011;43129;52.628;10.098;2023-08-30T03:21:08;5.38;;;4.15;;
57281;SDS011;43129;52.628;10.098;2023-08-30T03:23:34;6.03;;;3.63;;
57281;SDS011;43129;52.628;10.098;2023-08-30T03:26:21;5.40;;;3.70;;
57281;SDS011;43129;52.628;10.098;2023-08-30T03:28:48;4.15;;;3.60;;
57281;SDS011;43129;52.628;10.098;2023-08-30T03:31:15;3.83;;;3.22;;
57281;SDS011;43129;52.628;10.098;2023-08-30T03:36:17;5.85;;;3.45;;
57281;SDS011;43129;52.628;10.098;2023-08-30T03:38:43;4.85;;;3.35;;
57281;SDS011;43129;52.628;10.098;2023-08-30T03:41:10;5.50;;;3.17;;
57281;SDS011;43129;52.628;10.098;2023-08-30T03:43:36;4.80;;;3.30;;
57281;SDS011;43129;52.628;10.098;2023-08-30T03:46:08;4.28;;;3.80;;
57281;SDS011;43129;52.628;10.098;2023-08-30T03:48:36;5.35;;;4.40;;
57281;SDS011;43129;52.628;10.098;2023-08-30T03:51:02;5.95;;;4.25;;
57281;SDS011;43129;52.628;10.098;2023-08-30T03:53:30;4.00;;;3.60;;
57281;SDS011;43129;52.628;10.098;2023-08-30T03:55:56;4.70;;;3.97;;
57281;SDS011;43129;52.628;10.098;2023-08-30T03:58:21;6.50;;;4.45;;
57281;SDS011;43129;52.628;10.098;2023-08-30T04:00:48;4.47;;;3.97;;
57281;SDS011;43129;52.628;10.098;2023-08-30T04:03:14;7.25;;;4.05;;
57281;SDS011;43129;52.628;10.098;2023-08-30T04:05:40;5.07;;;3.92;;
57281;SDS011;43129;52.628;10.098;2023-08-30T04:08:06;7.20;;;4.05;;
57281;SDS011;43129;52.628;10.098;2023-08-30T04:10:36;5.18;;;3.90;;
57281;SDS011;43129;52.628;10.098;2023-08-30T04:13:05;6.88;;;4.88;;
57281;SDS011;43129;52.628;10.098;2023-08-30T04:15:33;5.05;;;4.55;;
57281;SDS011;43129;52.628;10.098;2023-08-30T04:17:59;4.82;;;4.32;;
57281;SDS011;43129;52.628;10.098;2023-08-30T04:20:25;5.72;;;4.38;;
57281;SDS011;43129;52.628;10.098;2023-08-30T04:22:50;6.72;;;4.32;;
57281;SDS011;43129;52.628;10.098;2023-08-30T04:25:20;6.53;;;4.60;;
57281;SDS011;43129;52.628;10.098;2023-08-30T04:27:48;5.10;;;4.60;;
57281;SDS011;43129;52.628;10.098;2023-08-30T04:30:13;5.88;;;5.28;;
57281;SDS011;43129;52.628;10.098;2023-08-30T04:32:40;5.70;;;5.10;;
57281;SDS011;43129;52.628;10.098;2023-08-30T04:35:07;6.10;;;4.68;;
57281;SDS011;43129;52.628;10.098;2023-08-30T04:37:35;6.60;;;5.45;;
57281;SDS011;43129;52.628;10.098;2023-08-30T04:40:03;6.57;;;5.35;;
57281;SDS011;43129;52.628;10.098;2023-08-30T04:42:29;5.13;;;4.57;;
57281;SDS011;43129;52.628;10.098;2023-08-30T04:44:55;7.10;;;5.43;;
57281;SDS011;43129;52.628;10.098;2023-08-30T04:47:21;8.73;;;6.40;;
57281;SDS011;43129;52.628;10.098;2023-08-30T04:49:54;7.95;;;6.72;;
57281;SDS011;43129;52.628;10.098;2023-08-30T04:52:19;7.60;;;6.38;;
57281;SDS011;43129;52.628;10.098;2023-08-30T04:54:45;10.10;;;6.88;;
57281;SDS011;43129;52.628;10.098;2023-08-30T04:57:11;8.82;;;6.63;;
57281;SDS011;43129;52.628;10.098;2023-08-30T04:59:43;7.70;;;6.90;;
57281;SDS011;43129;52.628;10.098;2023-08-30T05:02:10;7.43;;;6.72;;
57281;SDS011;43129;52.628;10.098;2023-08-30T05:04:38;7.15;;;6.22;;
57281;SDS011;43129;52.628;10.098;2023-08-30T05:07:03;8.65;;;7.07;;
57281;SDS011;43129;52.628;10.098;2023-08-30T05:09:29;9.13;;;6.82;;
57281;SDS011;43129;52.628;10.098;2023-08-30T05:11:55;8.20;;;7.40;;
57281;SDS011;43129;52.628;10.098;2023-08-30T05:14:21;7.97;;;7.10;;
57281;SDS011;43129;52.628;10.098;2023-08-30T05:16:49;10.70;;;8.55;;
57281;SDS011;43129;52.628;10.098;2023-08-30T05:19:17;9.48;;;8.27;;
57281;SDS011;43129;52.628;10.098;2023-08-30T05:21:43;10.77;;;7.28;;
57281;SDS011;43129;52.628;10.098;2023-08-30T05:24:09;9.80;;;7.95;;
57281;SDS011;43129;52.628;10.098;2023-08-30T05:26:35;12.00;;;6.72;;
57281;SDS011;43129;52.628;10.098;2023-08-30T05:29:03;8.88;;;7.43;;
57281;SDS011;43129;52.628;10.098;2023-08-30T05:31:29;9.93;;;7.10;;
57281;SDS011;43129;52.628;10.098;2023-08-30T05:33:55;8.65;;;7.32;;
57281;SDS011;43129;52.628;10.098;2023-08-30T05:36:23;7.07;;;6.15;;
57281;SDS011;43129;52.628;10.098;2023-08-30T05:38:48;10.65;;;7.38;;
57281;SDS011;43129;52.628;10.098;2023-08-30T05:41:14;10.38;;;6.75;;
57281;SDS011;43129;52.628;10.098;2023-08-30T05:43:42;7.22;;;6.53;;
57281;SDS011;43129;52.628;10.098;2023-08-30T05:46:10;8.57;;;7.25;;
57281;SDS011;43129;52.628;10.098;2023-08-30T05:48:39;10.55;;;6.90;;
57281;SDS011;43129;52.628;10.098;2023-08-30T05:51:08;9.95;;;8.02;;
57281;SDS011;43129;52.628;10.098;2023-08-30T05:53:33;7.65;;;6.60;;
57281;SDS011;43129;52.628;10.098;2023-08-30T05:55:59;11.13;;;7.05;;
57281;SDS011;43129;52.628;10.098;2023-08-30T05:58:27;7.38;;;6.47;;
57281;SDS011;43129;52.628;10.098;2023-08-30T06:00:54;9.02;;;6.93;;
57281;SDS011;43129;52.628;10.098;2023-08-30T06:03:20;7.88;;;6.90;;
57281;SDS011;43129;52.628;10.098;2023-08-30T06:05:45;10.63;;;8.93;;
57281;SDS011;43129;52.628;10.098;2023-08-30T06:08:13;37.60;;;24.95;;
57281;SDS011;43129;52.628;10.098;2023-08-30T06:10:45;12.48;;;8.63;;
57281;SDS011;43129;52.628;10.098;2023-08-30T06:13:15;9.38;;;6.75;;
57281;SDS011;43129;52.628;10.098;2023-08-30T06:15:41;8.95;;;6.78;;
57281;SDS011;43129;52.628;10.098;2023-08-30T06:18:12;7.50;;;6.80;;
57281;SDS011;43129;52.628;10.098;2023-08-30T06:20:41;7.78;;;6.50;;
57281;SDS011;43129;52.628;10.098;2023-08-30T06:23:09;9.95;;;7.05;;
57281;SDS011;43129;52.628;10.098;2023-08-30T06:25:35;7.45;;;6.72;;
57281;SDS011;43129;52.628;10.098;2023-08-30T06:28:00;9.88;;;6.70;;
57281;SDS011;43129;52.628;10.098;2023-08-30T06:30:29;7.30;;;6.60;;
57281;SDS011;43129;52.628;10.098;2023-08-30T06:32:55;9.05;;;6.38;;
57281;SDS011;43129;52.628;10.098;2023-08-30T06:35:21;8.60;;;6.72;;
57281;SDS011;43129;52.628;10.098;2023-08-30T06:37:47;7.38;;;6.45;;
57281;SDS011;43129;52.628;10.098;2023-08-30T06:40:13;10.27;;;6.68;;
57281;SDS011;43129;52.628;10.098;2023-08-30T06:42:39;7.30;;;6.28;;
57281;SDS011;43129;52.628;10.098;2023-08-30T06:45:04;6.53;;;5.90;;
57281;SDS011;43129;52.628;10.098;2023-08-30T06:47:35;6.80;;;5.93;;
57281;SDS011;43129;52.628;10.098;2023-08-30T06:50:01;6.88;;;5.47;;
57281;SDS011;43129;52.628;10.098;2023-08-30T06:52:29;8.70;;;6.22;;
57281;SDS011;43129;52.628;10.098;2023-08-30T06:54:54;8.30;;;6.20;;
57281;SDS011;43129;52.628;10.098;2023-08-30T06:57:22;8.95;;;5.40;;
57281;SDS011;43129;52.628;10.098;2023-08-30T06:59:50;7.22;;;5.40;;
57281;SDS011;43129;52.628;10.098;2023-08-30T07:02:16;9.73;;;5.60;;
57281;SDS011;43129;52.628;10.098;2023-08-30T07:04:44;6.20;;;5.07;;
57281;SDS011;43129;52.628;10.098;2023-08-30T07:07:12;7.57;;;4.95;;
57281;SDS011;43129;52.628;10.098;2023-08-30T07:09:40;9.43;;;5.03;;
57281;SDS011;43129;52.628;10.098;2023-08-30T07:12:10;6.03;;;4.85;;
57281;SDS011;43129;52.628;10.098;2023-08-30T07:14:36;6.43;;;5.32;;
57281;SDS011;43129;52.628;10.098;2023-08-30T07:17:01;7.53;;;4.63;;
57281;SDS011;43129;52.628;10.098;2023-08-30T07:19:27;8.52;;;5.22;;
57281;SDS011;43129;52.628;10.098;2023-08-30T07:21:53;6.10;;;5.47;;
57281;SDS011;43129;52.628;10.098;2023-08-30T07:24:18;7.35;;;5.45;;
57281;SDS011;43129;52.628;10.098;2023-08-30T07:26:44;9.23;;;5.18;;
57281;SDS011;43129;52.628;10.098;2023-08-30T07:29:12;7.35;;;5.10;;
57281;SDS011;43129;52.628;10.098;2023-08-30T07:31:39;9.65;;;5.10;;
57281;SDS011;43129;52.628;10.098;2023-08-30T07:34:10;5.70;;;4.60;;
57281;SDS011;43129;52.628;10.098;2023-08-30T07:36:36;9.88;;;5.10;;
57281;SDS011;43129;52.628;10.098;2023-08-30T07:39:02;5.85;;;4.57;;
57281;SDS011;43129;52.628;10.098;2023-08-30T07:41:33;7.28;;;6.13;;
57281;SDS011;43129;52.628;10.098;2023-08-30T07:43:59;5.60;;;5.05;;
57281;SDS011;43129;52.628;10.098;2023-08-30T07:46:25;5.22;;;4.70;;
57281;SDS011;43129;52.628;10.098;2023-08-30T07:48:53;7.65;;;6.22;;
57281;SDS011;43129;52.628;10.098;2023-08-30T07:51:21;9.10;;;6.25;;
57281;SDS011;43129;52.628;10.098;2023-08-30T07:53:46;8.35;;;5.68;;
57281;SDS011;43129;52.628;10.098;2023-08-30T07:56:12;6.88;;;5.40;;
57281;SDS011;43129;52.628;10.098;2023-08-30T07:58:43;10.18;;;6.75;;
57281;SDS011;43129;52.628;10.098;2023-08-30T08:01:11;8.18;;;6.68;;
57281;SDS011;43129;52.628;10.098;2023-08-30T08:03:36;6.47;;;5.85;;
57281;SDS011;43129;52.628;10.098;2023-08-30T08:06:06;11.40;;;6.45;;
57281;SDS011;43129;52.628;10.098;2023-08-30T08:08:31;10.75;;;8.48;;
57281;SDS011;43129;52.628;10.098;2023-08-30T08:10:58;9.10;;;7.38;;
57281;SDS011;43129;52.628;10.098;2023-08-30T08:13:26;12.25;;;7.90;;
57281;SDS011;43129;52.628;10.098;2023-08-30T08:15:55;11.00;;;8.20;;
57281;SDS011;43129;52.628;10.098;2023-08-30T08:18:24;10.68;;;9.05;;
57281;SDS011;43129;52.628;10.098;2023-08-30T08:20:54;12.38;;;9.43;;
57281;SDS011;43129;52.628;10.098;2023-08-30T08:23:22;8.98;;;8.07;;
57281;SDS011;43129;52.628;10.098;2023-08-30T08:25:47;10.05;;;8.15;;
57281;SDS011;43129;52.628;10.098;2023-08-30T08:28:13;11.15;;;8.98;;
57281;SDS011;43129;52.628;10.098;2023-08-30T08:30:39;10.20;;;8.05;;
57281;SDS011;43129;52.628;10.098;2023-08-30T08:33:04;14.20;;;8.68;;
57281;SDS011;43129;52.628;10.098;2023-08-30T08:35:30;10.90;;;8.30;;
57281;SDS011;43129;52.628;10.098;2023-08-30T08:37:55;9.50;;;6.70;;
57281;SDS011;43129;52.628;10.098;2023-08-30T08:40:21;9.90;;;6.53;;
57281;SDS011;43129;52.628;10.098;2023-08-30T08:42:47;7.20;;;6.28;;
57281;SDS011;43129;52.628;10.098;2023-08-30T08:45:17;9.80;;;7.07;;
57281;SDS011;43129;52.628;10.098;2023-08-30T08:47:45;8.30;;;6.90;;
57281;SDS011;43129;52.628;10.098;2023-08-30T08:50:13;11.13;;;7.30;;
57281;SDS011;43129;52.628;10.098;2023-08-30T08:52:39;9.18;;;7.80;;
57281;SDS011;43129;52.628;10.098;2023-08-30T08:55:05;8.63;;;7.72;;
57281;SDS011;43129;52.628;10.098;2023-08-30T08:57:31;12.93;;;7.80;;
57281;SDS011;43129;52.628;10.098;2023-08-30T08:59:57;8.48;;;6.60;;
57281;SDS011;43129;52.628;10.098;2023-08-30T09:02:22;9.95;;;7.65;;
57281;SDS011;43129;52.628;10.098;2023-08-30T09:04:51;7.00;;;6.30;;
57281;SDS011;43129;52.628;10.098;2023-08-30T09:07:17;8.60;;;6.40;;
57281;SDS011;43129;52.628;10.098;2023-08-30T09:09:44;7.45;;;6.13;;
57281;SDS011;43129;52.628;10.098;2023-08-30T09:12:11;7.78;;;6.47;;
57281;SDS011;43129;52.628;10.098;2023-08-30T09:14:37;9.20;;;7.00;;
57281;SDS011;43129;52.628;10.098;2023-08-30T09:17:03;10.13;;;7.50;;
57281;SDS011;43129;52.628;10.098;2023-08-30T09:19:33;10.27;;;6.03;;
57281;SDS011;43129;52.628;10.098;2023-08-30T09:22:00;10.32;;;6.53;;
57281;SDS011;43129;52.628;10.098;2023-08-30T09:24:36;6.95;;;5.05;;
57281;SDS011;43129;52.628;10.098;2023-08-30T09:27:03;11.40;;;6.32;;
57281;SDS011;43129;52.628;10.098;2023-08-30T09:29:29;7.88;;;7.07;;
57281;SDS011;43129;52.628;10.098;2023-08-30T09:31:55;10.77;;;6.07;;
57281;SDS011;43129;52.628;10.098;2023-08-30T09:34:26;7.28;;;6.18;;
57281;SDS011;43129;52.628;10.098;2023-08-30T09:36:51;14.52;;;6.10;;
57281;SDS011;43129;52.628;10.098;2023-08-30T09:39:20;12.02;;;9.77;;
57281;SDS011;43129;52.628;10.098;2023-08-30T09:41:48;9.52;;;7.80;;
57281;SDS011;43129;52.628;10.098;2023-08-30T09:44:18;8.82;;;6.72;;
57281;SDS011;43129;52.628;10.098;2023-08-30T09:49:14;8.90;;;6.53;;
57281;SDS011;43129;52.628;10.098;2023-08-30T09:51:42;14.30;;;8.70;;
57281;SDS011;43129;52.628;10.098;2023-08-30T09:54:15;10.32;;;8.18;;
57281;SDS011;43129;52.628;10.098;2023-08-30T09:56:42;9.32;;;8.32;;
57281;SDS011;43129;52.628;10.098;2023-08-30T09:59:09;12.60;;;8.70;;
57281;SDS011;43129;52.628;10.098;2023-08-30T10:01:39;10.00;;;7.85;;
57281;SDS011;43129;52.628;10.098;2023-08-30T10:04:06;8.70;;;7.80;;
57281;SDS011;43129;52.628;10.098;2023-08-30T10:06:38;9.82;;;7.90;;
57281;SDS011;43129;52.628;10.098;2023-08-30T10:09:08;10.82;;;7.70;;
57281;SDS011;43129;52.628;10.098;2023-08-30T10:11:36;8.57;;;7.32;;
57281;SDS011;43129;52.628;10.098;2023-08-30T10:14:05;10.57;;;7.93;;
57281;SDS011;43129;52.628;10.098;2023-08-30T10:16:44;10.07;;;6.85;;
57281;SDS011;43129;52.628;10.098;2023-08-30T10:19:15;8.98;;;7.80;;
57281;SDS011;43129;52.628;10.098;2023-08-30T10:21:45;8.18;;;7.25;;
57281;SDS011;43129;52.628;10.098;2023-08-30T10:24:19;9.40;;;6.82;;
57281;SDS011;43129;52.628;10.098;2023-08-30T10:26:46;9.75;;;6.68;;
57281;SDS011;43129;52.628;10.098;2023-08-30T10:29:16;10.23;;;7.88;;
57281;SDS011;43129;52.628;10.098;2023-08-30T10:31:42;8.88;;;7.82;;
57281;SDS011;43129;52.628;10.098;2023-08-30T10:34:14;10.13;;;8.40;;
57281;SDS011;43129;52.628;10.098;2023-08-30T10:36:55;9.75;;;8.70;;
57281;SDS011;43129;52.628;10.098;2023-08-30T10:39:35;11.77;;;8.00;;
57281;SDS011;43129;52.628;10.098;2023-08-30T10:42:06;11.15;;;8.32;;
57281;SDS011;43129;52.628;10.098;2023-08-30T10:44:33;13.45;;;9.10;;
57281;SDS011;43129;52.628;10.098;2023-08-30T10:47:02;9.85;;;8.85;;
57281;SDS011;43129;52.628;10.098;2023-08-30T10:49:29;12.32;;;8.95;;
57281;SDS011;43129;52.628;10.098;2023-08-30T10:52:03;11.25;;;8.73;;
57281;SDS011;43129;52.628;10.098;2023-08-30T10:54:36;12.23;;;9.70;;
57281;SDS011;43129;52.628;10.098;2023-08-30T10:57:05;9.93;;;8.27;;
57281;SDS011;43129;52.628;10.098;2023-08-30T11:02:02;8.40;;;7.53;;
57281;SDS011;43129;52.628;10.098;2023-08-30T11:04:31;13.15;;;9.98;;
57281;SDS011;43129;52.628;10.098;2023-08-30T11:06:57;13.65;;;11.10;;
57281;SDS011;43129;52.628;10.098;2023-08-30T11:09:23;11.25;;;9.93;;
57281;SDS011;43129;52.628;10.098;2023-08-30T11:11:50;13.70;;;11.07;;
57281;SDS011;43129;52.628;10.098;2023-08-30T11:14:16;12.68;;;9.73;;
57281;SDS011;43129;52.628;10.098;2023-08-30T11:16:43;14.65;;;9.82;;
57281;SDS011;43129;52.628;10.098;2023-08-30T11:19:10;10.77;;;9.30;;
57281;SDS011;43129;52.628;10.098;2023-08-30T11:21:37;13.27;;;9.85;;
57281;SDS011;43129;52.628;10.098;2023-08-30T11:24:06;10.52;;;9.32;;
57281;SDS011;43129;52.628;10.098;2023-08-30T11:26:32;11.43;;;9.75;;
57281;SDS011;43129;52.628;10.098;2023-08-30T11:29:07;12.60;;;8.32;;
57281;SDS011;43129;52.628;10.098;2023-08-30T11:31:33;9.05;;;7.05;;
57281;SDS011;43129;52.628;10.098;2023-08-30T11:33:59;11.93;;;8.27;;
57281;SDS011;43129;52.628;10.098;2023-08-30T11:36:28;10.25;;;7.70;;
57281;SDS011;43129;52.628;10.098;2023-08-30T11:38:58;10.00;;;7.00;;
57281;SDS011;43129;52.628;10.098;2023-08-30T11:41:26;8.60;;;6.30;;
57281;SDS011;43129;52.628;10.098;2023-08-30T11:43:52;8.95;;;6.35;;
57281;SDS011;43129;52.628;10.098;2023-08-30T11:46:19;9.45;;;6.68;;
57281;SDS011;43129;52.628;10.098;2023-08-30T11:48:48;7.53;;;5.55;;
57281;SDS011;43129;52.628;10.098;2023-08-30T11:51:18;7.07;;;6.05;;
57281;SDS011;43129;52.628;10.098;2023-08-30T11:53:46;9.43;;;7.07;;
57281;SDS011;43129;52.628;10.098;2023-08-30T11:56:12;9.10;;;6.72;;
57281;SDS011;43129;52.628;10.098;2023-08-30T11:58:38;6.68;;;5.38;;
57281;SDS011;43129;52.628;10.098;2023-08-30T12:01:04;7.63;;;6.72;;
57281;SDS011;43129;52.628;10.098;2023-08-30T12:03:32;10.95;;;6.70;;
57281;SDS011;43129;52.628;10.098;2023-08-30T12:05:58;8.68;;;6.47;;
57281;SDS011;43129;52.628;10.098;2023-08-30T12:08:24;8.70;;;6.10;;
57281;SDS011;43129;52.628;10.098;2023-08-30T12:10:57;9.95;;;7.30;;
57281;SDS011;43129;52.628;10.098;2023-08-30T12:13:27;6.93;;;5.85;;
57281;SDS011;43129;52.628;10.098;2023-08-30T12:15:55;8.27;;;5.63;;
57281;SDS011;43129;52.628;10.098;2023-08-30T12:18:25;11.07;;;7.38;;
57281;SDS011;43129;52.628;10.098;2023-08-30T12:20:57;8.57;;;7.10;;
57281;SDS011;43129;52.628;10.098;2023-08-30T12:23:28;8.57;;;6.82;;
57281;SDS011;43129;52.628;10.098;2023-08-30T12:28:33;9.95;;;6.82;;
57281;SDS011;43129;52.628;10.098;2023-08-30T12:31:02;8.15;;;6.10;;
57281;SDS011;43129;52.628;10.098;2023-08-30T12:33:34;7.38;;;5.85;;
57281;SDS011;43129;52.628;10.098;2023-08-30T12:36:00;7.18;;;6.30;;
57281;SDS011;43129;52.628;10.098;2023-08-30T12:38:26;6.63;;;5.40;;
57281;SDS011;43129;52.628;10.098;2023-08-30T12:40:52;7.45;;;6.53;;
57281;SDS011;43129;52.628;10.098;2023-08-30T12:43:19;7.75;;;6.43;;
57281;SDS011;43129;52.628;10.098;2023-08-30T12:45:45;10.43;;;6.15;;
57281;SDS011;43129;52.628;10.098;2023-08-30T12:48:17;8.38;;;7.50;;
57281;SDS011;43129;52.628;10.098;2023-08-30T12:50:44;9.23;;;7.15;;
57281;SDS011;43129;52.628;10.098;2023-08-30T12:53:11;6.13;;;5.53;;
57281;SDS011;43129;52.628;10.098;2023-08-30T12:55:37;6.30;;;4.80;;
57281;SDS011;43129;52.628;10.098;2023-08-30T12:58:05;6.97;;;5.75;;
57281;SDS011;43129;52.628;10.098;2023-08-30T13:00:32;9.38;;;8.38;;
57281;SDS011;43129;52.628;10.098;2023-08-30T13:02:58;8.25;;;5.85;;
57281;SDS011;43129;52.628;10.098;2023-08-30T13:05:28;9.93;;;7.13;;
57281;SDS011;43129;52.628;10.098;2023-08-30T13:07:55;10.45;;;7.82;;
57281;SDS011;43129;52.628;10.098;2023-08-30T13:10:25;7.18;;;5.80;;
57281;SDS011;43129;52.628;10.098;2023-08-30T13:12:51;6.97;;;6.07;;
57281;SDS011;43129;52.628;10.098;2023-08-30T13:15:17;6.93;;;4.88;;
57281;SDS011;43129;52.628;10.098;2023-08-30T13:17:43;6.93;;;5.10;;
57281;SDS011;43129;52.628;10.098;2023-08-30T13:20:09;6.15;;;4.78;;
57281;SDS011;43129;52.628;10.098;2023-08-30T13:22:35;7.60;;;5.78;;
57281;SDS011;43129;52.628;10.098;2023-08-30T13:25:05;7.68;;;5.43;;
57281;SDS011;43129;52.628;10.098;2023-08-30T13:27:34;6.85;;;5.30;;
57281;SDS011;43129;52.628;10.098;2023-08-30T13:30:00;6.15;;;5.43;;
57281;SDS011;43129;52.628;10.098;2023-08-30T13:32:26;6.28;;;4.30;;
57281;SDS011;43129;52.628;10.098;2023-08-30T13:34:52;7.85;;;5.00;;
57281;SDS011;43129;52.628;10.098;2023-08-30T13:37:18;8.00;;;5.40;;
57281;SDS011;43129;52.628;10.098;2023-08-30T13:39:43;7.13;;;6.40;;
57281;SDS011;43129;52.628;10.098;2023-08-30T13:42:09;6.78;;;5.85;;
57281;SDS011;43129;52.628;10.098;2023-08-30T13:44:39;6.22;;;5.63;;
57281;SDS011;43129;52.628;10.098;2023-08-30T13:47:09;6.43;;;5.63;;
57281;SDS011;43129;52.628;10.098;2023-08-30T13:49:35;8.10;;;6.05;;
57281;SDS011;43129;52.628;10.098;2023-08-30T13:52:02;5.90;;;5.30;;
57281;SDS011;43129;52.628;10.098;2023-08-30T13:54:28;6.07;;;5.47;;
57281;SDS011;43129;52.628;10.098;2023-08-30T13:56:56;4.70;;;4.20;;
57281;SDS011;43129;52.628;10.098;2023-08-30T13:59:22;6.95;;;6.20;;
57281;SDS011;43129;52.628;10.098;2023-08-30T14:01:47;8.10;;;7.30;;
57281;SDS011;43129;52.628;10.098;2023-08-30T14:04:13;5.82;;;4.90;;
57281;SDS011;43129;52.628;10.098;2023-08-30T14:06:41;5.60;;;4.82;;
57281;SDS011;43129;52.628;10.098;2023-08-30T14:09:07;6.13;;;5.03;;
57281;SDS011;43129;52.628;10.098;2023-08-30T14:11:35;7.28;;;5.05;;
57281;SDS011;43129;52.628;10.098;2023-08-30T14:14:02;7.57;;;4.50;;
57281;SDS011;43129;52.628;10.098;2023-08-30T14:16:28;8.98;;;7.38;;
57281;SDS011;43129;52.628;10.098;2023-08-30T14:18:58;6.80;;;4.60;;
57281;SDS011;43129;52.628;10.098;2023-08-30T14:21:30;5.30;;;4.80;;
57281;SDS011;43129;52.628;10.098;2023-08-30T14:23:58;4.88;;;4.38;;
57281;SDS011;43129;52.628;10.098;2023-08-30T14:26:26;5.60;;;4.72;;
57281;SDS011;43129;52.628;10.098;2023-08-30T14:28:52;5.57;;;4.47;;
57281;SDS011;43129;52.628;10.098;2023-08-30T14:31:18;7.10;;;4.97;;
57281;SDS011;43129;52.628;10.098;2023-08-30T14:33:44;6.75;;;5.80;;
57281;SDS011;43129;52.628;10.098;2023-08-30T14:36:13;7.78;;;6.20;;
57281;SDS011;43129;52.628;10.098;2023-08-30T14:38:41;8.55;;;5.70;;
57281;SDS011;43129;52.628;10.098;2023-08-30T14:41:07;7.97;;;6.03;;
57281;SDS011;43129;52.628;10.098;2023-08-30T14:43:35;5.75;;;5.15;;
57281;SDS011;43129;52.628;10.098;2023-08-30T14:46:04;7.50;;;6.70;;
57281;SDS011;43129;52.628;10.098;2023-08-30T14:48:33;10.43;;;7.32;;
57281;SDS011;43129;52.628;10.098;2023-08-30T14:51:06;12.43;;;7.07;;